sensor_id;sensor_type;location;lat;lon;timestamp;P1;durP1;ratioP1;P2;durP2;ratioP2
64936;SDS011;51452;47.698;19.050;2024-02-26T00:00:11;25.30;;;16.45;;
64936;SDS011;51452;47.698;19.050;2024-02-26T00:03:37;24.65;;;15.48;;
64936;SDS011;51452;47.698;19.050;2024-02-26T00:06:04;25.55;;;16.67;;
64936;SDS011;51452;47.698;19.050;2024-02-26T00:08:29;28.55;;;16.38;;
64936;SDS011;51452;47.698;19.050;2024-02-26T00:10:54;23.25;;;15.63;;
64936;SDS011;51452;47.698;19.050;2024-02-26T00:13:20;24.85;;;15.45;;
64936;SDS011;51452;47.698;19.050;2024-02-26T00:15:47;24.70;;;15.00;;
64936;SDS011;51452;47.698;19.050;2024-02-26T00:18:12;21.42;;;15.00;;
64936;SDS011;51452;47.698;19.050;2024-02-26T00:20:38;21.58;;;14.38;;
64936;SDS011;51452;47.698;19.050;2024-02-26T00:23:05;23.52;;;15.10;;
64936;SDS011;51452;47.698;19.050;2024-02-26T00:25:30;23.13;;;14.57;;
64936;SDS011;51452;47.698;19.050;2024-02-26T00:27:56;23.70;;;14.57;;
64936;SDS011;51452;47.698;19.050;2024-02-26T00:30:22;21.75;;;13.65;;
64936;SDS011;51452;47.698;19.050;2024-02-26T00:32:48;18.88;;;13.48;;
64936;SDS011;51452;47.698;19.050;2024-02-26T00:35:13;19.65;;;13.45;;
64936;SDS011;51452;47.698;19.050;2024-02-26T00:37:40;20.20;;;13.48;;
64936;SDS011;51452;47.698;19.050;2024-02-26T00:40:08;20.50;;;13.75;;
64936;SDS011;51452;47.698;19.050;2024-02-26T00:42:34;21.52;;;14.07;;
64936;SDS011;51452;47.698;19.050;2024-02-26T00:44:59;20.10;;;13.57;;
64936;SDS011;51452;47.698;19.050;2024-02-26T00:47:24;19.25;;;13.68;;
64936;SDS011;51452;47.698;19.050;2024-02-26T00:49:50;21.15;;;13.63;;
64936;SDS011;51452;47.698;19.050;2024-02-26T00:52:15;19.48;;;12.52;;
64936;SDS011;51452;47.698;19.050;2024-02-26T00:54:40;20.52;;;13.80;;
64936;SDS011;51452;47.698;19.050;2024-02-26T00:57:06;20.08;;;12.80;;
64936;SDS011;51452;47.698;19.050;2024-02-26T00:59:31;19.25;;;13.15;;
64936;SDS011;51452;47.698;19.050;2024-02-26T01:01:57;18.75;;;13.20;;
64936;SDS011;51452;47.698;19.050;2024-02-26T01:04:26;21.52;;;12.95;;
64936;SDS011;51452;47.698;19.050;2024-02-26T01:06:51;20.35;;;13.18;;
64936;SDS011;51452;47.698;19.050;2024-02-26T01:09:17;18.48;;;12.57;;
64936;SDS011;51452;47.698;19.050;2024-02-26T01:11:43;18.20;;;12.50;;
64936;SDS011;51452;47.698;19.050;2024-02-26T01:14:08;19.05;;;12.45;;
64936;SDS011;51452;47.698;19.050;2024-02-26T01:16:34;19.15;;;12.80;;
64936;SDS011;51452;47.698;19.050;2024-02-26T01:18:59;19.02;;;12.93;;
64936;SDS011;51452;47.698;19.050;2024-02-26T01:21:25;18.90;;;12.32;;
64936;SDS011;51452;47.698;19.050;2024-02-26T01:23:51;20.70;;;13.10;;
64936;SDS011;51452;47.698;19.050;2024-02-26T01:26:17;15.57;;;11.10;;
64936;SDS011;51452;47.698;19.050;2024-02-26T01:28:42;15.27;;;11.40;;
64936;SDS011;51452;47.698;19.050;2024-02-26T01:31:09;17.08;;;12.13;;
64936;SDS011;51452;47.698;19.050;2024-02-26T01:33:35;17.90;;;12.00;;
64936;SDS011;51452;47.698;19.050;2024-02-26T01:36:01;17.58;;;11.38;;
64936;SDS011;51452;47.698;19.050;2024-02-26T01:38:26;19.17;;;12.27;;
64936;SDS011;51452;47.698;19.050;2024-02-26T01:40:52;19.33;;;13.52;;
64936;SDS011;51452;47.698;19.050;2024-02-26T01:43:18;19.63;;;12.70;;
64936;SDS011;51452;47.698;19.050;2024-02-26T01:45:44;22.77;;;12.93;;
64936;SDS011;51452;47.698;19.050;2024-02-26T01:48:09;18.70;;;13.00;;
64936;SDS011;51452;47.698;19.050;2024-02-26T01:50:35;16.67;;;11.43;;
64936;SDS011;51452;47.698;19.050;2024-02-26T01:53:03;17.05;;;11.35;;
64936;SDS011;51452;47.698;19.050;2024-02-26T01:55:29;19.27;;;12.32;;
64936;SDS011;51452;47.698;19.050;2024-02-26T01:57:54;19.75;;;12.20;;
64936;SDS011;51452;47.698;19.050;2024-02-26T02:00:20;19.42;;;12.60;;
64936;SDS011;51452;47.698;19.050;2024-02-26T02:02:46;19.80;;;12.77;;
64936;SDS011;51452;47.698;19.050;2024-02-26T02:05:16;16.40;;;11.90;;
64936;SDS011;51452;47.698;19.050;2024-02-26T02:07:45;20.27;;;12.70;;
64936;SDS011;51452;47.698;19.050;2024-02-26T02:10:13;22.40;;;13.32;;
64936;SDS011;51452;47.698;19.050;2024-02-26T02:12:39;18.95;;;12.35;;
64936;SDS011;51452;47.698;19.050;2024-02-26T02:15:05;20.67;;;12.82;;
64936;SDS011;51452;47.698;19.050;2024-02-26T02:17:31;19.88;;;11.82;;
64936;SDS011;51452;47.698;19.050;2024-02-26T02:19:57;21.63;;;12.38;;
64936;SDS011;51452;47.698;19.050;2024-02-26T02:22:22;19.38;;;12.32;;
64936;SDS011;51452;47.698;19.050;2024-02-26T02:24:48;19.52;;;12.93;;
64936;SDS011;51452;47.698;19.050;2024-02-26T02:27:14;18.90;;;12.70;;
64936;SDS011;51452;47.698;19.050;2024-02-26T02:29:40;20.55;;;12.50;;
64936;SDS011;51452;47.698;19.050;2024-02-26T02:32:06;19.50;;;12.10;;
64936;SDS011;51452;47.698;19.050;2024-02-26T02:34:32;16.48;;;10.75;;
64936;SDS011;51452;47.698;19.050;2024-02-26T02:36:59;20.23;;;11.73;;
64936;SDS011;51452;47.698;19.050;2024-02-26T02:39:24;17.77;;;11.25;;
64936;SDS011;51452;47.698;19.050;2024-02-26T02:41:49;18.73;;;11.18;;
64936;SDS011;51452;47.698;19.050;2024-02-26T02:44:15;17.40;;;11.00;;
64936;SDS011;51452;47.698;19.050;2024-02-26T02:46:40;15.30;;;10.25;;
64936;SDS011;51452;47.698;19.050;2024-02-26T02:49:09;17.90;;;11.48;;
64936;SDS011;51452;47.698;19.050;2024-02-26T02:51:37;17.52;;;11.40;;
64936;SDS011;51452;47.698;19.050;2024-02-26T02:54:03;17.38;;;11.05;;
64936;SDS011;51452;47.698;19.050;2024-02-26T02:56:28;17.33;;;10.93;;
64936;SDS011;51452;47.698;19.050;2024-02-26T02:58:54;17.23;;;10.98;;
64936;SDS011;51452;47.698;19.050;2024-02-26T03:01:20;19.10;;;10.13;;
64936;SDS011;51452;47.698;19.050;2024-02-26T03:03:45;15.95;;;10.38;;
64936;SDS011;51452;47.698;19.050;2024-02-26T03:06:10;13.95;;;9.02;;
64936;SDS011;51452;47.698;19.050;2024-02-26T03:08:36;15.38;;;9.18;;
64936;SDS011;51452;47.698;19.050;2024-02-26T03:11:03;15.88;;;9.15;;
64936;SDS011;51452;47.698;19.050;2024-02-26T03:13:29;14.57;;;8.85;;
64936;SDS011;51452;47.698;19.050;2024-02-26T03:15:54;14.60;;;8.65;;
64936;SDS011;51452;47.698;19.050;2024-02-26T03:18:20;13.98;;;8.25;;
64936;SDS011;51452;47.698;19.050;2024-02-26T03:20:45;15.68;;;9.07;;
64936;SDS011;51452;47.698;19.050;2024-02-26T03:23:11;14.68;;;8.90;;
64936;SDS011;51452;47.698;19.050;2024-02-26T03:25:39;14.18;;;8.50;;
64936;SDS011;51452;47.698;19.050;2024-02-26T03:28:06;14.70;;;8.85;;
64936;SDS011;51452;47.698;19.050;2024-02-26T03:30:32;13.85;;;8.95;;
64936;SDS011;51452;47.698;19.050;2024-02-26T03:32:57;14.85;;;8.48;;
64936;SDS011;51452;47.698;19.050;2024-02-26T03:35:22;13.38;;;7.88;;
64936;SDS011;51452;47.698;19.050;2024-02-26T03:37:48;14.15;;;8.60;;
64936;SDS011;51452;47.698;19.050;2024-02-26T03:40:15;16.40;;;8.07;;
64936;SDS011;51452;47.698;19.050;2024-02-26T03:42:40;14.70;;;8.15;;
64936;SDS011;51452;47.698;19.050;2024-02-26T03:45:06;13.43;;;8.65;;
64936;SDS011;51452;47.698;19.050;2024-02-26T03:47:32;13.82;;;8.27;;
64936;SDS011;51452;47.698;19.050;2024-02-26T03:49:57;15.68;;;8.55;;
64936;SDS011;51452;47.698;19.050;2024-02-26T03:52:24;12.32;;;7.15;;
64936;SDS011;51452;47.698;19.050;2024-02-26T03:54:49;13.65;;;7.70;;
64936;SDS011;51452;47.698;19.050;2024-02-26T03:57:15;13.50;;;8.00;;
64936;SDS011;51452;47.698;19.050;2024-02-26T03:59:40;11.88;;;7.18;;
64936;SDS011;51452;47.698;19.050;2024-02-26T04:02:06;12.82;;;7.10;;
64936;SDS011;51452;47.698;19.050;2024-02-26T04:04:33;13.43;;;7.57;;
64936;SDS011;51452;47.698;19.050;2024-02-26T04:06:59;12.50;;;7.30;;
64936;SDS011;51452;47.698;19.050;2024-02-26T04:09:24;12.55;;;6.85;;
64936;SDS011;51452;47.698;19.050;2024-02-26T04:11:50;11.18;;;6.30;;
64936;SDS011;51452;47.698;19.050;2024-02-26T04:14:16;10.65;;;6.30;;
64936;SDS011;51452;47.698;19.050;2024-02-26T04:16:41;10.98;;;5.82;;
64936;SDS011;51452;47.698;19.050;2024-02-26T04:19:07;13.50;;;6.50;;
64936;SDS011;51452;47.698;19.050;2024-02-26T04:21:32;7.63;;;5.35;;
64936;SDS011;51452;47.698;19.050;2024-02-26T04:23:58;10.63;;;5.60;;
64936;SDS011;51452;47.698;19.050;2024-02-26T04:26:26;8.98;;;5.65;;
64936;SDS011;51452;47.698;19.050;2024-02-26T04:28:52;9.15;;;5.95;;
64936;SDS011;51452;47.698;19.050;2024-02-26T04:31:18;12.00;;;6.53;;
64936;SDS011;51452;47.698;19.050;2024-02-26T04:33:43;11.57;;;6.75;;
64936;SDS011;51452;47.698;19.050;2024-02-26T04:36:15;10.77;;;6.18;;
64936;SDS011;51452;47.698;19.050;2024-02-26T04:38:42;10.07;;;6.00;;
64936;SDS011;51452;47.698;19.050;2024-02-26T04:41:08;10.55;;;6.07;;
64936;SDS011;51452;47.698;19.050;2024-02-26T04:43:33;10.90;;;6.30;;
64936;SDS011;51452;47.698;19.050;2024-02-26T04:45:59;10.93;;;6.63;;
64936;SDS011;51452;47.698;19.050;2024-02-26T04:48:24;13.15;;;6.57;;
64936;SDS011;51452;47.698;19.050;2024-02-26T04:50:52;13.77;;;7.10;;
64936;SDS011;51452;47.698;19.050;2024-02-26T04:53:18;14.27;;;7.93;;
64936;SDS011;51452;47.698;19.050;2024-02-26T04:55:43;13.93;;;8.30;;
64936;SDS011;51452;47.698;19.050;2024-02-26T04:58:09;16.08;;;8.68;;
64936;SDS011;51452;47.698;19.050;2024-02-26T05:00:35;17.00;;;9.63;;
64936;SDS011;51452;47.698;19.050;2024-02-26T05:03:00;16.98;;;9.77;;
64936;SDS011;51452;47.698;19.050;2024-02-26T05:05:26;18.58;;;10.25;;
64936;SDS011;51452;47.698;19.050;2024-02-26T05:07:51;17.10;;;10.07;;
64936;SDS011;51452;47.698;19.050;2024-02-26T05:10:17;15.30;;;9.20;;
64936;SDS011;51452;47.698;19.050;2024-02-26T05:12:42;16.73;;;9.32;;
64936;SDS011;51452;47.698;19.050;2024-02-26T05:15:08;14.18;;;8.52;;
64936;SDS011;51452;47.698;19.050;2024-02-26T05:17:35;16.75;;;9.30;;
64936;SDS011;51452;47.698;19.050;2024-02-26T05:20:00;16.48;;;8.95;;
64936;SDS011;51452;47.698;19.050;2024-02-26T05:22:25;19.85;;;9.68;;
64936;SDS011;51452;47.698;19.050;2024-02-26T05:24:51;16.60;;;8.15;;
64936;SDS011;51452;47.698;19.050;2024-02-26T05:27:17;15.63;;;8.65;;
64936;SDS011;51452;47.698;19.050;2024-02-26T05:29:42;15.30;;;7.38;;
64936;SDS011;51452;47.698;19.050;2024-02-26T05:32:08;18.63;;;7.65;;
64936;SDS011;51452;47.698;19.050;2024-02-26T05:34:33;14.63;;;7.32;;
64936;SDS011;51452;47.698;19.050;2024-02-26T05:36:59;15.77;;;7.53;;
64936;SDS011;51452;47.698;19.050;2024-02-26T05:39:24;15.48;;;7.55;;
64936;SDS011;51452;47.698;19.050;2024-02-26T05:41:50;13.77;;;7.00;;
64936;SDS011;51452;47.698;19.050;2024-02-26T05:44:15;15.02;;;7.65;;
64936;SDS011;51452;47.698;19.050;2024-02-26T05:46:41;14.40;;;7.70;;
64936;SDS011;51452;47.698;19.050;2024-02-26T05:49:07;14.48;;;7.22;;
64936;SDS011;51452;47.698;19.050;2024-02-26T05:51:32;14.65;;;7.43;;
64936;SDS011;51452;47.698;19.050;2024-02-26T05:53:58;14.60;;;7.68;;
64936;SDS011;51452;47.698;19.050;2024-02-26T05:56:23;13.65;;;8.18;;
64936;SDS011;51452;47.698;19.050;2024-02-26T05:58:49;17.02;;;7.30;;
64936;SDS011;51452;47.698;19.050;2024-02-26T06:01:15;17.77;;;8.07;;
64936;SDS011;51452;47.698;19.050;2024-02-26T06:03:42;16.20;;;8.73;;
64936;SDS011;51452;47.698;19.050;2024-02-26T06:06:07;17.13;;;8.93;;
64936;SDS011;51452;47.698;19.050;2024-02-26T06:08:33;18.60;;;8.80;;
64936;SDS011;51452;47.698;19.050;2024-02-26T06:10:58;16.42;;;8.45;;
64936;SDS011;51452;47.698;19.050;2024-02-26T06:13:24;14.63;;;8.00;;
64936;SDS011;51452;47.698;19.050;2024-02-26T06:15:49;17.73;;;8.63;;
64936;SDS011;51452;47.698;19.050;2024-02-26T06:18:14;17.75;;;9.10;;
64936;SDS011;51452;47.698;19.050;2024-02-26T06:20:41;15.88;;;9.07;;
64936;SDS011;51452;47.698;19.050;2024-02-26T06:23:07;17.60;;;9.30;;
64936;SDS011;51452;47.698;19.050;2024-02-26T06:25:32;18.88;;;9.07;;
64936;SDS011;51452;47.698;19.050;2024-02-26T06:27:57;18.85;;;9.10;;
64936;SDS011;51452;47.698;19.050;2024-02-26T06:30:23;17.10;;;9.23;;
64936;SDS011;51452;47.698;19.050;2024-02-26T06:32:49;18.58;;;9.50;;
64936;SDS011;51452;47.698;19.050;2024-02-26T06:35:14;18.75;;;10.73;;
64936;SDS011;51452;47.698;19.050;2024-02-26T06:37:40;17.45;;;9.95;;
64936;SDS011;51452;47.698;19.050;2024-02-26T06:40:06;16.48;;;9.57;;
64936;SDS011;51452;47.698;19.050;2024-02-26T06:42:35;19.15;;;10.00;;
64936;SDS011;51452;47.698;19.050;2024-02-26T06:45:00;16.10;;;9.73;;
64936;SDS011;51452;47.698;19.050;2024-02-26T06:47:26;16.63;;;9.35;;
64936;SDS011;51452;47.698;19.050;2024-02-26T06:49:51;16.10;;;8.52;;
64936;SDS011;51452;47.698;19.050;2024-02-26T06:52:17;16.55;;;9.05;;
64936;SDS011;51452;47.698;19.050;2024-02-26T06:54:42;16.88;;;9.13;;
64936;SDS011;51452;47.698;19.050;2024-02-26T06:57:08;18.23;;;9.05;;
64936;SDS011;51452;47.698;19.050;2024-02-26T06:59:33;17.92;;;8.82;;
64936;SDS011;51452;47.698;19.050;2024-02-26T07:01:59;18.30;;;9.80;;
64936;SDS011;51452;47.698;19.050;2024-02-26T07:04:24;17.38;;;9.48;;
64936;SDS011;51452;47.698;19.050;2024-02-26T07:06:49;16.27;;;9.32;;
64936;SDS011;51452;47.698;19.050;2024-02-26T07:09:15;20.63;;;10.63;;
64936;SDS011;51452;47.698;19.050;2024-02-26T07:11:40;18.50;;;10.55;;
64936;SDS011;51452;47.698;19.050;2024-02-26T07:14:11;20.65;;;11.00;;
64936;SDS011;51452;47.698;19.050;2024-02-26T07:16:37;21.27;;;11.32;;
64936;SDS011;51452;47.698;19.050;2024-02-26T07:19:03;16.05;;;10.18;;
64936;SDS011;51452;47.698;19.050;2024-02-26T07:21:28;18.90;;;11.13;;
64936;SDS011;51452;47.698;19.050;2024-02-26T07:23:54;22.10;;;11.73;;
64936;SDS011;51452;47.698;19.050;2024-02-26T07:26:19;20.38;;;11.55;;
64936;SDS011;51452;47.698;19.050;2024-02-26T07:28:45;20.58;;;11.80;;
64936;SDS011;51452;47.698;19.050;2024-02-26T07:31:11;20.95;;;12.52;;
64936;SDS011;51452;47.698;19.050;2024-02-26T07:33:36;23.70;;;12.45;;
64936;SDS011;51452;47.698;19.050;2024-02-26T07:36:02;23.70;;;11.90;;
64936;SDS011;51452;47.698;19.050;2024-02-26T07:38:27;18.98;;;11.07;;
64936;SDS011;51452;47.698;19.050;2024-02-26T07:40:53;21.42;;;13.30;;
64936;SDS011;51452;47.698;19.050;2024-02-26T07:43:18;19.88;;;12.23;;
64936;SDS011;51452;47.698;19.050;2024-02-26T07:45:44;22.60;;;12.73;;
64936;SDS011;51452;47.698;19.050;2024-02-26T07:48:09;24.90;;;13.82;;
64936;SDS011;51452;47.698;19.050;2024-02-26T07:50:35;22.10;;;12.88;;
64936;SDS011;51452;47.698;19.050;2024-02-26T07:53:00;23.35;;;13.30;;
64936;SDS011;51452;47.698;19.050;2024-02-26T07:55:25;24.48;;;13.98;;
64936;SDS011;51452;47.698;19.050;2024-02-26T07:57:51;23.58;;;13.52;;
64936;SDS011;51452;47.698;19.050;2024-02-26T08:00:16;21.98;;;14.07;;
64936;SDS011;51452;47.698;19.050;2024-02-26T08:02:43;23.20;;;13.30;;
64936;SDS011;51452;47.698;19.050;2024-02-26T08:05:09;24.98;;;14.68;;
64936;SDS011;51452;47.698;19.050;2024-02-26T08:07:34;21.98;;;12.90;;
64936;SDS011;51452;47.698;19.050;2024-02-26T08:10:00;25.70;;;15.50;;
64936;SDS011;51452;47.698;19.050;2024-02-26T08:12:25;26.45;;;16.02;;
64936;SDS011;51452;47.698;19.050;2024-02-26T08:14:50;27.33;;;16.85;;
64936;SDS011;51452;47.698;19.050;2024-02-26T08:17:16;28.65;;;16.40;;
64936;SDS011;51452;47.698;19.050;2024-02-26T08:19:41;27.13;;;16.35;;
64936;SDS011;51452;47.698;19.050;2024-02-26T08:22:07;27.42;;;17.30;;
64936;SDS011;51452;47.698;19.050;2024-02-26T08:24:32;33.35;;;18.63;;
64936;SDS011;51452;47.698;19.050;2024-02-26T08:26:58;31.30;;;18.73;;
64936;SDS011;51452;47.698;19.050;2024-02-26T08:29:23;30.40;;;18.80;;
64936;SDS011;51452;47.698;19.050;2024-02-26T08:31:48;30.33;;;18.92;;
64936;SDS011;51452;47.698;19.050;2024-02-26T08:34:14;30.10;;;17.60;;
64936;SDS011;51452;47.698;19.050;2024-02-26T08:36:40;28.38;;;17.58;;
64936;SDS011;51452;47.698;19.050;2024-02-26T08:39:05;36.40;;;20.20;;
64936;SDS011;51452;47.698;19.050;2024-02-26T08:41:32;31.13;;;18.98;;
64936;SDS011;51452;47.698;19.050;2024-02-26T08:43:57;32.63;;;20.77;;
64936;SDS011;51452;47.698;19.050;2024-02-26T08:46:23;31.23;;;19.88;;
64936;SDS011;51452;47.698;19.050;2024-02-26T08:48:48;31.65;;;19.25;;
64936;SDS011;51452;47.698;19.050;2024-02-26T08:51:14;32.58;;;19.25;;
64936;SDS011;51452;47.698;19.050;2024-02-26T08:53:40;31.38;;;19.35;;
64936;SDS011;51452;47.698;19.050;2024-02-26T08:56:06;32.85;;;20.92;;
64936;SDS011;51452;47.698;19.050;2024-02-26T08:58:31;35.90;;;20.75;;
64936;SDS011;51452;47.698;19.050;2024-02-26T09:00:56;35.17;;;20.75;;
64936;SDS011;51452;47.698;19.050;2024-02-26T09:03:22;32.97;;;22.13;;
64936;SDS011;51452;47.698;19.050;2024-02-26T09:05:48;34.10;;;22.40;;
64936;SDS011;51452;47.698;19.050;2024-02-26T09:08:14;35.92;;;21.35;;
64936;SDS011;51452;47.698;19.050;2024-02-26T09:10:39;33.72;;;21.92;;
64936;SDS011;51452;47.698;19.050;2024-02-26T09:13:05;33.80;;;22.17;;
64936;SDS011;51452;47.698;19.050;2024-02-26T09:15:30;33.90;;;20.25;;
64936;SDS011;51452;47.698;19.050;2024-02-26T09:17:56;32.63;;;21.67;;
64936;SDS011;51452;47.698;19.050;2024-02-26T09:20:21;33.78;;;21.38;;
64936;SDS011;51452;47.698;19.050;2024-02-26T09:22:48;33.60;;;21.40;;
64936;SDS011;51452;47.698;19.050;2024-02-26T09:25:15;35.83;;;22.35;;
64936;SDS011;51452;47.698;19.050;2024-02-26T09:27:44;37.55;;;21.88;;
64936;SDS011;51452;47.698;19.050;2024-02-26T09:30:10;35.03;;;22.00;;
64936;SDS011;51452;47.698;19.050;2024-02-26T09:32:37;32.10;;;20.55;;
64936;SDS011;51452;47.698;19.050;2024-02-26T09:35:03;35.40;;;22.15;;
64936;SDS011;51452;47.698;19.050;2024-02-26T09:37:29;37.38;;;22.60;;
64936;SDS011;51452;47.698;19.050;2024-02-26T09:39:54;32.35;;;21.00;;
64936;SDS011;51452;47.698;19.050;2024-02-26T09:42:19;33.70;;;21.38;;
64936;SDS011;51452;47.698;19.050;2024-02-26T09:44:45;32.83;;;21.13;;
64936;SDS011;51452;47.698;19.050;2024-02-26T09:47:14;32.20;;;21.52;;
64936;SDS011;51452;47.698;19.050;2024-02-26T09:49:42;34.72;;;21.60;;
64936;SDS011;51452;47.698;19.050;2024-02-26T09:52:08;35.83;;;22.60;;
64936;SDS011;51452;47.698;19.050;2024-02-26T09:54:34;33.25;;;23.00;;
64936;SDS011;51452;47.698;19.050;2024-02-26T09:57:00;34.83;;;21.73;;
64936;SDS011;51452;47.698;19.050;2024-02-26T09:59:29;33.63;;;22.55;;
64936;SDS011;51452;47.698;19.050;2024-02-26T10:01:57;34.08;;;21.90;;
64936;SDS011;51452;47.698;19.050;2024-02-26T10:04:25;32.20;;;21.23;;
64936;SDS011;51452;47.698;19.050;2024-02-26T10:06:51;33.33;;;22.70;;
64936;SDS011;51452;47.698;19.050;2024-02-26T10:09:17;33.38;;;22.98;;
64936;SDS011;51452;47.698;19.050;2024-02-26T10:11:44;35.17;;;22.42;;
64936;SDS011;51452;47.698;19.050;2024-02-26T10:14:10;34.65;;;22.50;;
64936;SDS011;51452;47.698;19.050;2024-02-26T10:16:36;33.25;;;22.05;;
64936;SDS011;51452;47.698;19.050;2024-02-26T10:19:02;31.38;;;21.42;;
64936;SDS011;51452;47.698;19.050;2024-02-26T10:21:27;31.55;;;21.95;;
64936;SDS011;51452;47.698;19.050;2024-02-26T10:23:53;35.60;;;23.20;;
64936;SDS011;51452;47.698;19.050;2024-02-26T10:26:19;34.63;;;23.05;;
64936;SDS011;51452;47.698;19.050;2024-02-26T10:28:45;37.50;;;23.58;;
64936;SDS011;51452;47.698;19.050;2024-02-26T10:31:11;32.92;;;22.35;;
64936;SDS011;51452;47.698;19.050;2024-02-26T10:33:39;34.42;;;22.65;;
64936;SDS011;51452;47.698;19.050;2024-02-26T10:36:06;32.05;;;22.13;;
64936;SDS011;51452;47.698;19.050;2024-02-26T10:38:35;31.83;;;21.30;;
64936;SDS011;51452;47.698;19.050;2024-02-26T10:41:02;29.80;;;20.75;;
64936;SDS011;51452;47.698;19.050;2024-02-26T10:43:28;34.20;;;22.40;;
64936;SDS011;51452;47.698;19.050;2024-02-26T10:45:54;31.65;;;22.15;;
64936;SDS011;51452;47.698;19.050;2024-02-26T10:48:20;30.90;;;21.70;;
64936;SDS011;51452;47.698;19.050;2024-02-26T10:50:46;31.48;;;22.45;;
64936;SDS011;51452;47.698;19.050;2024-02-26T10:53:14;33.42;;;22.98;;
64936;SDS011;51452;47.698;19.050;2024-02-26T10:55:43;35.45;;;23.20;;
64936;SDS011;51452;47.698;19.050;2024-02-26T10:58:19;31.55;;;22.83;;
64936;SDS011;51452;47.698;19.050;2024-02-26T11:00:50;34.58;;;23.42;;
64936;SDS011;51452;47.698;19.050;2024-02-26T11:03:17;32.72;;;23.33;;
64936;SDS011;51452;47.698;19.050;2024-02-26T11:05:49;37.25;;;23.48;;
64936;SDS011;51452;47.698;19.050;2024-02-26T11:08:15;29.52;;;21.67;;
64936;SDS011;51452;47.698;19.050;2024-02-26T11:10:43;30.63;;;21.63;;
64936;SDS011;51452;47.698;19.050;2024-02-26T11:13:12;30.38;;;19.73;;
64936;SDS011;51452;47.698;19.050;2024-02-26T11:15:39;29.50;;;21.25;;
64936;SDS011;51452;47.698;19.050;2024-02-26T11:18:05;31.65;;;20.20;;
64936;SDS011;51452;47.698;19.050;2024-02-26T11:20:32;28.42;;;20.38;;
64936;SDS011;51452;47.698;19.050;2024-02-26T11:22:59;31.75;;;22.40;;
64936;SDS011;51452;47.698;19.050;2024-02-26T11:25:24;30.55;;;21.75;;
64936;SDS011;51452;47.698;19.050;2024-02-26T11:27:51;31.92;;;20.85;;
64936;SDS011;51452;47.698;19.050;2024-02-26T11:30:23;32.78;;;21.75;;
64936;SDS011;51452;47.698;19.050;2024-02-26T11:32:55;32.58;;;21.75;;
64936;SDS011;51452;47.698;19.050;2024-02-26T11:35:21;29.00;;;20.40;;
64936;SDS011;51452;47.698;19.050;2024-02-26T11:37:55;29.90;;;20.48;;
64936;SDS011;51452;47.698;19.050;2024-02-26T11:40:23;31.58;;;19.70;;
64936;SDS011;51452;47.698;19.050;2024-02-26T11:42:50;27.33;;;18.20;;
64936;SDS011;51452;47.698;19.050;2024-02-26T11:48:04;26.80;;;17.77;;
64936;SDS011;51452;47.698;19.050;2024-02-26T11:50:36;27.67;;;17.70;;
64936;SDS011;51452;47.698;19.050;2024-02-26T11:55:45;24.75;;;17.77;;
64936;SDS011;51452;47.698;19.050;2024-02-26T11:58:10;25.30;;;16.80;;
64936;SDS011;51452;47.698;19.050;2024-02-26T12:00:36;27.45;;;17.02;;
64936;SDS011;51452;47.698;19.050;2024-02-26T12:03:01;25.88;;;17.10;;
64936;SDS011;51452;47.698;19.050;2024-02-26T12:05:33;27.45;;;17.40;;
64936;SDS011;51452;47.698;19.050;2024-02-26T12:08:05;24.38;;;16.80;;
64936;SDS011;51452;47.698;19.050;2024-02-26T12:10:33;25.25;;;17.33;;
64936;SDS011;51452;47.698;19.050;2024-02-26T12:13:13;25.38;;;16.95;;
64936;SDS011;51452;47.698;19.050;2024-02-26T12:15:43;25.35;;;17.40;;
64936;SDS011;51452;47.698;19.050;2024-02-26T12:18:10;26.08;;;17.60;;
64936;SDS011;51452;47.698;19.050;2024-02-26T12:20:45;23.75;;;17.08;;
64936;SDS011;51452;47.698;19.050;2024-02-26T12:23:14;23.83;;;16.63;;
64936;SDS011;51452;47.698;19.050;2024-02-26T12:25:42;25.00;;;15.68;;
64936;SDS011;51452;47.698;19.050;2024-02-26T12:28:09;22.45;;;15.77;;
64936;SDS011;51452;47.698;19.050;2024-02-26T12:30:35;24.40;;;16.92;;
64936;SDS011;51452;47.698;19.050;2024-02-26T12:33:00;24.00;;;15.18;;
64936;SDS011;51452;47.698;19.050;2024-02-26T12:35:27;23.50;;;16.05;;
64936;SDS011;51452;47.698;19.050;2024-02-26T12:37:57;23.73;;;15.98;;
64936;SDS011;51452;47.698;19.050;2024-02-26T12:40:23;25.15;;;16.70;;
64936;SDS011;51452;47.698;19.050;2024-02-26T12:42:49;24.02;;;16.70;;
64936;SDS011;51452;47.698;19.050;2024-02-26T12:45:15;21.98;;;15.43;;
64936;SDS011;51452;47.698;19.050;2024-02-26T12:47:42;20.02;;;14.07;;
64936;SDS011;51452;47.698;19.050;2024-02-26T12:50:08;20.83;;;15.02;;
64936;SDS011;51452;47.698;19.050;2024-02-26T12:52:35;20.55;;;15.00;;
64936;SDS011;51452;47.698;19.050;2024-02-26T12:55:04;23.17;;;15.25;;
64936;SDS011;51452;47.698;19.050;2024-02-26T12:57:34;21.70;;;15.80;;
64936;SDS011;51452;47.698;19.050;2024-02-26T13:00:02;22.75;;;15.30;;
64936;SDS011;51452;47.698;19.050;2024-02-26T13:02:29;21.90;;;14.73;;
64936;SDS011;51452;47.698;19.050;2024-02-26T13:04:56;21.55;;;14.88;;
64936;SDS011;51452;47.698;19.050;2024-02-26T13:07:22;18.40;;;14.10;;
64936;SDS011;51452;47.698;19.050;2024-02-26T13:09:48;20.30;;;13.77;;
64936;SDS011;51452;47.698;19.050;2024-02-26T13:12:13;19.45;;;13.75;;
64936;SDS011;51452;47.698;19.050;2024-02-26T13:14:39;18.10;;;13.10;;
64936;SDS011;51452;47.698;19.050;2024-02-26T13:17:05;18.35;;;13.57;;
64936;SDS011;51452;47.698;19.050;2024-02-26T13:19:31;17.20;;;12.35;;
64936;SDS011;51452;47.698;19.050;2024-02-26T13:22:02;19.83;;;12.48;;
64936;SDS011;51452;47.698;19.050;2024-02-26T13:24:29;16.80;;;11.88;;
64936;SDS011;51452;47.698;19.050;2024-02-26T13:26:56;20.90;;;13.25;;
64936;SDS011;51452;47.698;19.050;2024-02-26T13:29:22;17.60;;;12.60;;
64936;SDS011;51452;47.698;19.050;2024-02-26T13:31:47;15.90;;;12.05;;
64936;SDS011;51452;47.698;19.050;2024-02-26T13:34:25;16.67;;;10.68;;
64936;SDS011;51452;47.698;19.050;2024-02-26T13:36:52;14.30;;;11.00;;
64936;SDS011;51452;47.698;19.050;2024-02-26T13:39:22;14.63;;;11.10;;
64936;SDS011;51452;47.698;19.050;2024-02-26T13:41:49;17.02;;;11.00;;
64936;SDS011;51452;47.698;19.050;2024-02-26T13:44:15;18.73;;;10.52;;
64936;SDS011;51452;47.698;19.050;2024-02-26T13:46:41;15.88;;;9.98;;
64936;SDS011;51452;47.698;19.050;2024-02-26T13:49:07;14.30;;;10.02;;
64936;SDS011;51452;47.698;19.050;2024-02-26T13:51:34;16.05;;;9.15;;
64936;SDS011;51452;47.698;19.050;2024-02-26T13:54:01;14.27;;;9.50;;
64936;SDS011;51452;47.698;19.050;2024-02-26T13:56:27;13.02;;;6.85;;
64936;SDS011;51452;47.698;19.050;2024-02-26T13:58:52;13.00;;;5.18;;
64936;SDS011;51452;47.698;19.050;2024-02-26T14:01:18;6.13;;;5.20;;
64936;SDS011;51452;47.698;19.050;2024-02-26T14:03:43;8.68;;;5.82;;
64936;SDS011;51452;47.698;19.050;2024-02-26T14:06:09;7.28;;;4.90;;
64936;SDS011;51452;47.698;19.050;2024-02-26T14:08:34;6.93;;;4.55;;
64936;SDS011;51452;47.698;19.050;2024-02-26T14:10:59;8.07;;;5.25;;
64936;SDS011;51452;47.698;19.050;2024-02-26T14:13:25;10.68;;;5.13;;